Terminal Aerodrome Forecast
Issued by NWS Tulsa, OK

Home | Current Version | Previous Version | Text Only | Print | Product List | Glossary On
Versions: 1 2 3 4 5 6 7 8 9 10 11 12 13 14
000
FTUS44 KTSA 272300
TAFTUL
TAF
KTUL 272328Z 2800/2824 05007KT P6SM VCSH OVC100
      TEMPO 2800/2804 4SM -RA BKN025
     FM280400 02007KT 6SM -RA BR OVC040
     FM281200 01008KT P6SM OVC050
     FM281700 02012G18KT P6SM BKN150=

USA.gov is the U.S. government's official web portal to all federal, state and local government web resources and services.